Time;durP1;ratioP1;P1;durP2;ratioP2;P2;SDS_P1;SDS_P2;PMS_P1;PMS_P2;Temp;Humidity;BMP_temperature;BMP_pressure;BME280_temperature;BME280_humidity;BME280_pressure;Samples;Min_cycle;Max_cycle;Signal;HPM_P1;HPM_P2
2023/10/13 00:00:29;;;;;;;84.80;53.37;;;;;;;;;;5135960;27;20047;-82
2023/10/13 00:03:00;;;;;;;80.65;53.78;;;;;;;;;;5116369;27;20380;-81
2023/10/13 00:05:27;;;;;;;84.53;54.75;;;;;;;;;;5133783;27;20047;-82
2023/10/13 00:07:53;;;;;;;90.60;54.75;;;;;;;;;;5117538;27;20051;-82
2023/10/13 00:10:21;;;;;;;78.57;52.80;;;;;;;;;;5134673;27;20138;-82
2023/10/13 00:12:49;;;;;;;76.22;52.38;;;;;;;;;;5134615;27;20060;-82
2023/10/13 00:15:21;;;;;;;84.25;54.63;;;;;;;;;;5117888;27;20066;-81
2023/10/13 00:17:47;;;;;;;95.45;57.47;;;;;;;;;;5118355;27;20090;-81
2023/10/13 00:20:17;;;;;;;100.47;56.05;;;;;;;;;;5116890;27;20055;-81
2023/10/13 00:22:44;;;;;;;91.93;56.35;;;;;;;;;;5117498;27;20054;-81
2023/10/13 00:25:18;;;;;;;88.55;55.22;;;;;;;;;;5117029;27;20170;-81
2023/10/13 00:27:45;;;;;;;81.55;53.30;;;;;;;;;;5134731;27;20051;-81
2023/10/13 00:30:32;;;;;;;93.30;56.95;;;;;;;;;;5134114;27;20051;-81
2023/10/13 00:32:59;;;;;;;87.43;56.78;;;;;;;;;;5104130;27;20086;-82
2023/10/13 00:35:35;;;;;;;97.25;58.20;;;;;;;;;;5134290;27;20047;-81
2023/10/13 00:38:04;;;;;;;89.20;58.17;;;;;;;;;;5117142;27;20486;-81
2023/10/13 00:45:54;;;;;;;82.93;53.75;;;;;;;;;;5119887;27;20059;-81
2023/10/13 00:48:32;;;;;;;81.50;54.55;;;;;;;;;;5116833;27;20534;-81
2023/10/13 00:51:02;;;;;;;89.63;55.08;;;;;;;;;;5134533;27;20047;-81
2023/10/13 00:53:29;;;;;;;86.55;53.83;;;;;;;;;;5134015;27;20051;-81
2023/10/13 00:55:55;;;;;;;83.47;55.75;;;;;;;;;;5116440;27;20057;-81
2023/10/13 00:58:22;;;;;;;97.63;56.70;;;;;;;;;;5116940;27;20094;-81
2023/10/13 01:00:56;;;;;;;88.53;54.78;;;;;;;;;;5133775;27;20536;-81
2023/10/13 01:03:26;;;;;;;93.03;58.08;;;;;;;;;;5116793;27;20074;-82
2023/10/13 01:05:55;;;;;;;81.88;52.72;;;;;;;;;;5100297;27;20086;-82
2023/10/13 01:08:44;;;;;;;91.30;56.08;;;;;;;;;;5133593;27;20046;-81
2023/10/13 01:11:10;;;;;;;81.32;52.90;;;;;;;;;;5116726;28;20054;-81
2023/10/13 01:13:37;;;;;;;69.70;50.83;;;;;;;;;;5099834;27;20054;-81
2023/10/13 01:16:07;;;;;;;79.43;52.53;;;;;;;;;;5133502;28;20055;-81
2023/10/13 01:18:39;;;;;;;75.60;49.83;;;;;;;;;;5116651;28;20070;-81
2023/10/13 01:21:07;;;;;;;79.07;52.45;;;;;;;;;;5116809;27;20058;-81
2023/10/13 01:23:38;;;;;;;71.78;49.70;;;;;;;;;;5137579;27;20047;-82
2023/10/13 01:26:05;;;;;;;72.03;49.53;;;;;;;;;;5121258;27;20172;-82
2023/10/13 01:28:44;;;;;;;68.90;48.28;;;;;;;;;;5137645;27;20043;-82
2023/10/13 01:31:17;;;;;;;76.18;48.22;;;;;;;;;;5138780;27;20051;-82
2023/10/13 01:33:43;;;;;;;67.10;47.10;;;;;;;;;;5137800;27;20420;-82
2023/10/13 01:36:12;;;;;;;77.28;50.17;;;;;;;;;;5138796;27;20047;-82
2023/10/13 01:38:38;;;;;;;71.63;48.22;;;;;;;;;;5121022;27;20051;-81
2023/10/13 01:41:08;;;;;;;73.07;47.10;;;;;;;;;;5137318;27;20043;-82
2023/10/13 01:43:35;;;;;;;71.05;47.17;;;;;;;;;;5137060;27;20139;-82
2023/10/13 01:46:03;;;;;;;63.83;45.65;;;;;;;;;;5137185;27;20055;-82
2023/10/13 01:48:32;;;;;;;77.68;47.13;;;;;;;;;;5138548;27;20055;-82
2023/10/13 01:51:00;;;;;;;61.28;42.72;;;;;;;;;;5120089;27;20089;-81
2023/10/13 01:53:28;;;;;;;63.53;43.25;;;;;;;;;;5120213;27;20047;-82
2023/10/13 01:55:58;;;;;;;58.30;39.53;;;;;;;;;;5119817;27;20043;-82
2023/10/13 01:58:26;;;;;;;67.25;43.30;;;;;;;;;;5119833;27;20050;-81
2023/10/13 02:00:52;;;;;;;66.22;41.78;;;;;;;;;;5120291;27;20047;-82
2023/10/13 02:03:18;;;;;;;75.20;43.92;;;;;;;;;;5136066;27;20088;-82
2023/10/13 02:05:48;;;;;;;71.88;43.97;;;;;;;;;;5137331;27;20085;-82
2023/10/13 02:08:22;;;;;;;68.93;43.05;;;;;;;;;;5137053;27;20531;-82
2023/10/13 02:10:48;;;;;;;63.95;41.42;;;;;;;;;;5137237;27;20047;-82
2023/10/13 02:13:16;;;;;;;71.30;43.47;;;;;;;;;;5119885;27;20122;-82
2023/10/13 02:15:43;;;;;;;65.80;42.83;;;;;;;;;;5120332;27;20051;-81
2023/10/13 02:18:10;;;;;;;63.85;41.63;;;;;;;;;;5119984;27;20043;-82
2023/10/13 02:20:42;;;;;;;60.45;40.58;;;;;;;;;;5119472;27;20390;-82
2023/10/13 02:23:12;;;;;;;59.85;39.67;;;;;;;;;;5104336;27;20080;-82
2023/10/13 02:25:45;;;;;;;60.28;40.65;;;;;;;;;;5136245;27;20125;-82
2023/10/13 02:28:21;;;;;;;60.10;40.67;;;;;;;;;;5103900;27;20051;-82
2023/10/13 02:30:50;;;;;;;68.97;41.30;;;;;;;;;;5120072;27;20046;-82
2023/10/13 02:33:29;;;;;;;58.88;40.13;;;;;;;;;;5102941;27;20046;-81
2023/10/13 02:35:56;;;;;;;61.55;39.42;;;;;;;;;;5119537;27;20051;-82
2023/10/13 02:38:46;;;;;;;60.97;40.97;;;;;;;;;;5137177;27;20461;-82
2023/10/13 02:41:18;;;;;;;61.47;39.13;;;;;;;;;;5136129;27;20039;-82
2023/10/13 02:43:45;;;;;;;57.35;37.53;;;;;;;;;;5135641;27;20063;-82
2023/10/13 02:46:11;;;;;;;52.85;37.33;;;;;;;;;;5119424;27;20086;-82
2023/10/13 02:48:40;;;;;;;52.05;37.13;;;;;;;;;;5137379;27;20058;-81
2023/10/13 02:51:15;;;;;;;53.35;37.92;;;;;;;;;;5119566;27;20448;-81
2023/10/13 02:53:50;;;;;;;52.38;36.95;;;;;;;;;;5136148;27;20043;-82
2023/10/13 02:56:23;;;;;;;55.97;38.72;;;;;;;;;;5136215;27;20446;-82
2023/10/13 02:58:53;;;;;;;57.58;39.15;;;;;;;;;;5136227;27;20040;-82
2023/10/13 03:01:20;;;;;;;61.72;38.70;;;;;;;;;;5119189;27;20112;-81
2023/10/13 03:03:54;;;;;;;53.95;39.72;;;;;;;;;;5136452;27;20367;-82
2023/10/13 03:06:23;;;;;;;47.03;35.45;;;;;;;;;;5136229;27;20376;-81
2023/10/13 03:08:49;;;;;;;51.50;37.15;;;;;;;;;;5118910;27;20130;-82
2023/10/13 03:11:21;;;;;;;52.33;39.22;;;;;;;;;;5118731;27;20043;-81
2023/10/13 03:13:47;;;;;;;56.90;38.60;;;;;;;;;;5135751;27;20546;-81
2023/10/13 03:16:19;;;;;;;59.85;40.42;;;;;;;;;;5135560;27;20486;-82
2023/10/13 03:18:53;;;;;;;50.28;37.35;;;;;;;;;;5136917;27;20082;-82
2023/10/13 03:21:28;;;;;;;54.55;39.78;;;;;;;;;;5135887;27;20047;-81
2023/10/13 03:24:07;;;;;;;58.72;40.17;;;;;;;;;;5102971;27;20047;-82
2023/10/13 03:26:36;;;;;;;56.85;39.10;;;;;;;;;;5102248;27;20050;-82
2023/10/13 03:29:03;;;;;;;55.10;38.67;;;;;;;;;;5135562;27;20055;-82
2023/10/13 03:31:36;;;;;;;58.70;38.65;;;;;;;;;;5118673;27;20133;-83
2023/10/13 03:34:03;;;;;;;56.17;40.13;;;;;;;;;;5119703;27;20380;-82
2023/10/13 03:39:14;;;;;;;55.75;38.60;;;;;;;;;;5134923;27;20138;-83
2023/10/13 03:41:40;;;;;;;50.97;37.80;;;;;;;;;;5135138;27;20169;-82
2023/10/13 03:44:17;;;;;;;51.33;38.60;;;;;;;;;;5134294;27;20192;-83
2023/10/13 03:46:47;;;;;;;47.40;35.83;;;;;;;;;;5102419;27;20054;-83
2023/10/13 03:49:14;;;;;;;44.15;34.70;;;;;;;;;;5135307;27;20111;-82
2023/10/13 03:51:40;;;;;;;53.58;38.92;;;;;;;;;;5134943;27;20100;-83
2023/10/13 03:54:09;;;;;;;43.05;34.63;;;;;;;;;;5117972;27;20395;-82
2023/10/13 03:56:38;;;;;;;53.15;37.22;;;;;;;;;;5118034;27;20130;-82
2023/10/13 03:59:35;;;;;;;42.80;35.72;;;;;;;;;;5134072;27;20180;-83
2023/10/13 04:04:34;;;;;;;47.67;34.35;;;;;;;;;;5134586;27;20043;-81
2023/10/13 04:17:23;;;;;;;39.78;30.75;;;;;;;;;;5135017;27;20047;-82
2023/10/13 04:23:26;;;;;;;38.58;30.65;;;;;;;;;;5134701;27;20482;-82
2023/10/13 04:25:35;;;;;;;42.30;31.30;;;;;;;;;;5122826;27;20082;-83
2023/10/13 04:36:11;;;;;;;38.55;29.52;;;;;;;;;;5134328;27;20054;-82
2023/10/13 04:38:55;;;;;;;34.67;30.63;;;;;;;;;;5134527;27;20111;-83
2023/10/13 04:41:24;;;;;;;41.15;30.02;;;;;;;;;;5116987;27;20111;-82
2023/10/13 04:43:57;;;;;;;41.40;30.30;;;;;;;;;;5171678;27;20409;-80
2023/10/13 04:46:35;;;;;;;36.80;29.23;;;;;;;;;;5158480;27;20046;-81
2023/10/13 04:49:09;;;;;;;32.13;26.48;;;;;;;;;;5158502;27;20061;-80
2023/10/13 04:51:58;;;;;;;38.45;30.30;;;;;;;;;;5157962;27;20439;-80
2023/10/13 04:54:45;;;;;;;29.50;23.90;;;;;;;;;;5158219;27;20043;-81
2023/10/13 05:05:30;;;;;;;35.83;28.13;;;;;;;;;;5176449;27;20046;-81
2023/10/13 05:49:26;;;;;;;22.45;20.10;;;;;;;;;;5157731;27;20057;-80
2023/10/13 05:52:06;;;;;;;22.33;20.02;;;;;;;;;;5153700;27;20038;-80
2023/10/13 06:30:17;;;;;;;15.35;11.25;;;;;;;;;;5160566;27;20046;-81
2023/10/13 06:32:46;;;;;;;16.65;11.98;;;;;;;;;;5143485;27;20034;-82
2023/10/13 06:35:24;;;;;;;18.73;13.90;;;;;;;;;;5160119;27;20137;-84
2023/10/13 06:37:51;;;;;;;17.55;13.73;;;;;;;;;;5156730;27;20129;-86
2023/10/13 06:40:26;;;;;;;20.15;14.98;;;;;;;;;;5154553;27;20043;-83
2023/10/13 06:43:11;;;;;;;16.98;12.65;;;;;;;;;;5159346;27;20132;-83
2023/10/13 06:45:37;;;;;;;16.27;12.65;;;;;;;;;;5140072;27;20051;-83
2023/10/13 06:48:04;;;;;;;17.13;11.48;;;;;;;;;;5122749;27;20053;-83
2023/10/13 06:50:39;;;;;;;18.95;11.82;;;;;;;;;;5166497;27;20161;-83
2023/10/13 06:53:05;;;;;;;17.33;12.27;;;;;;;;;;5144560;27;20046;-82
2023/10/13 06:55:39;;;;;;;13.85;12.20;;;;;;;;;;5142903;27;20042;-83
2023/10/13 06:58:06;;;;;;;15.82;10.93;;;;;;;;;;5143374;27;20085;-82
2023/10/13 07:00:34;;;;;;;17.30;11.93;;;;;;;;;;5160338;27;20046;-82
2023/10/13 07:03:06;;;;;;;11.25;7.30;;;;;;;;;;5160041;27;20049;-81
2023/10/13 07:05:41;;;;;;;9.73;8.68;;;;;;;;;;5143106;27;20038;-82
2023/10/13 07:08:07;;;;;;;;;;;;;;;;;;5160940;27;20050;-81
2023/10/13 07:10:48;;;;;;;11.38;7.15;;;;;;;;;;5160227;27;19918;-81
2023/10/13 07:13:16;;;;;;;12.23;7.75;;;;;;;;;;5143026;27;20042;-81
2023/10/13 07:15:45;;;;;;;16.15;7.57;;;;;;;;;;5142432;27;20046;-82
2023/10/13 07:18:19;;;;;;;15.57;8.55;;;;;;;;;;5143151;27;20077;-81
2023/10/13 07:20:45;;;;;;;11.95;8.48;;;;;;;;;;5142056;27;20046;-81
2023/10/13 07:23:17;;;;;;;12.73;7.63;;;;;;;;;;5142353;27;20046;-81
2023/10/13 07:25:44;;;;;;;11.65;7.72;;;;;;;;;;5125976;27;20050;-81
2023/10/13 07:28:10;;;;;;;14.77;8.73;;;;;;;;;;5178228;27;20050;-82
2023/10/13 07:30:47;;;;;;;13.52;8.38;;;;;;;;;;5159794;27;20077;-82
2023/10/13 07:33:14;;;;;;;13.07;7.43;;;;;;;;;;5142924;27;20052;-82
2023/10/13 07:35:41;;;;;;;12.73;8.10;;;;;;;;;;5159630;27;20042;-81
2023/10/13 07:38:08;;;;;;;15.52;8.55;;;;;;;;;;5142346;27;20049;-81
2023/10/13 07:43:00;;;;;;;15.60;8.68;;;;;;;;;;5159435;27;20058;-81
2023/10/13 07:45:36;;;;;;;15.73;8.82;;;;;;;;;;5142692;27;20492;-81
2023/10/13 07:48:27;;;;;;;17.20;9.60;;;;;;;;;;5159602;27;20061;-81
2023/10/13 07:51:03;;;;;;;14.13;8.25;;;;;;;;;;5158853;27;20386;-81
2023/10/13 07:53:35;;;;;;;13.48;9.18;;;;;;;;;;5160118;27;20098;-81
2023/10/13 07:56:13;;;;;;;17.27;8.70;;;;;;;;;;5141282;27;20054;-81
2023/10/13 08:01:42;;;;;;;15.15;7.45;;;;;;;;;;5096239;28;20058;-81
2023/10/13 08:04:12;;;;;;;14.45;8.02;;;;;;;;;;5146682;27;20065;-81
2023/10/13 08:06:43;;;;;;;21.67;9.32;;;;;;;;;;5158993;27;20042;-81
2023/10/13 08:09:28;;;;;;;14.98;8.30;;;;;;;;;;5141839;27;20061;-81
2023/10/13 08:11:54;;;;;;;18.08;9.15;;;;;;;;;;5158768;27;20056;-81
2023/10/13 08:14:28;;;;;;;17.23;9.10;;;;;;;;;;5141646;27;20062;-81
2023/10/13 08:16:59;;;;;;;14.57;7.65;;;;;;;;;;5177199;27;20050;-81
2023/10/13 08:19:39;;;;;;;14.68;9.02;;;;;;;;;;5158622;27;20053;-81
2023/10/13 08:27:49;;;;;;;17.30;9.43;;;;;;;;;;5158365;27;20042;-82
2023/10/13 08:30:31;;;;;;;14.70;8.82;;;;;;;;;;5158850;27;20489;-82
2023/10/13 08:32:58;;;;;;;15.32;8.88;;;;;;;;;;5141355;27;20439;-81
2023/10/13 08:35:34;;;;;;;18.15;10.43;;;;;;;;;;5142038;27;20050;-82
2023/10/13 08:38:04;;;;;;;16.23;9.82;;;;;;;;;;5176893;27;20086;-81
2023/10/13 08:40:43;;;;;;;12.75;8.77;;;;;;;;;;5124579;27;20042;-81
2023/10/13 08:43:12;;;;;;;12.40;10.07;;;;;;;;;;5140772;27;20051;-81
2023/10/13 08:48:16;;;;;;;13.32;8.95;;;;;;;;;;5158329;27;20057;-81
2023/10/13 08:50:52;;;;;;;11.88;9.25;;;;;;;;;;5141333;27;20129;-81
2023/10/13 08:56:33;;;;;;;12.05;8.68;;;;;;;;;;5158145;27;20054;-80
2023/10/13 09:01:59;;;;;;;10.45;7.57;;;;;;;;;;5157852;27;20412;-79
2023/10/13 09:04:33;;;;;;;10.30;6.72;;;;;;;;;;5140901;27;20050;-80
2023/10/13 09:09:36;;;;;;;9.95;5.72;;;;;;;;;;5157780;27;19966;-80
2023/10/13 09:12:13;;;;;;;12.25;7.70;;;;;;;;;;5176601;27;20050;-81
2023/10/13 09:14:56;;;;;;;13.50;8.15;;;;;;;;;;5157947;27;20111;-81
2023/10/13 09:17:35;;;;;;;11.48;5.95;;;;;;;;;;5158835;27;20053;-81
2023/10/13 09:25:35;;;;;;;13.23;7.57;;;;;;;;;;5143442;27;20050;-82
2023/10/13 09:28:02;;;;;;;13.30;7.68;;;;;;;;;;5140800;27;20052;-82
2023/10/13 09:30:31;;;;;;;12.70;7.38;;;;;;;;;;5157538;27;20038;-82
2023/10/13 09:33:08;;;;;;;15.45;7.85;;;;;;;;;;5140775;27;20125;-82
2023/10/13 09:35:36;;;;;;;11.60;7.22;;;;;;;;;;5140295;27;20050;-81
2023/10/13 09:38:03;;;;;;;12.73;7.35;;;;;;;;;;5141048;27;20481;-81
2023/10/13 09:43:07;;;;;;;14.05;7.20;;;;;;;;;;5155713;27;20446;-81
2023/10/13 09:45:39;;;;;;;15.27;7.55;;;;;;;;;;5158377;27;20047;-82
2023/10/13 09:48:16;;;;;;;14.20;7.47;;;;;;;;;;5159030;27;20462;-81
2023/10/13 09:50:44;;;;;;;17.15;8.85;;;;;;;;;;5140999;27;20046;-81
2023/10/13 09:53:14;;;;;;;16.85;7.97;;;;;;;;;;5140969;27;20043;-80
2023/10/13 09:56:23;;;;;;;15.13;8.10;;;;;;;;;;5158183;27;20424;-81
2023/10/13 09:58:57;;;;;;;12.23;6.88;;;;;;;;;;5157891;27;20050;-81
2023/10/13 10:01:31;;;;;;;19.10;6.82;;;;;;;;;;5158188;27;20077;-81
2023/10/13 10:04:13;;;;;;;17.90;8.18;;;;;;;;;;5159065;27;20089;-81
2023/10/13 10:06:40;;;;;;;12.35;6.80;;;;;;;;;;5158095;27;20047;-81
2023/10/13 10:09:13;;;;;;;15.98;8.18;;;;;;;;;;5140739;27;20051;-81
2023/10/13 10:12:12;;;;;;;13.15;7.95;;;;;;;;;;5140994;27;20494;-81
2023/10/13 10:14:56;;;;;;;14.23;7.55;;;;;;;;;;5112901;27;20062;-80
2023/10/13 10:17:23;;;;;;;12.63;6.72;;;;;;;;;;5157537;27;20474;-80
2023/10/13 10:19:54;;;;;;;15.57;6.53;;;;;;;;;;5158790;27;20046;-81
2023/10/13 10:22:35;;;;;;;15.20;7.18;;;;;;;;;;5158182;27;20121;-80
2023/10/13 10:25:02;;;;;;;13.75;7.55;;;;;;;;;;5157681;27;20523;-81
2023/10/13 10:27:30;;;;;;;18.75;6.85;;;;;;;;;;5139892;27;20049;-81
2023/10/13 10:30:01;;;;;;;17.42;7.50;;;;;;;;;;5140180;27;20474;-81
2023/10/13 10:32:34;;;;;;;19.17;7.13;;;;;;;;;;5141042;27;20402;-81
2023/10/13 10:35:07;;;;;;;14.30;6.38;;;;;;;;;;5157236;27;20054;-80
2023/10/13 10:37:34;;;;;;;14.18;6.38;;;;;;;;;;5140209;27;20103;-81
2023/10/13 10:40:05;;;;;;;15.55;6.00;;;;;;;;;;5158530;27;20050;-81
2023/10/13 10:42:31;;;;;;;12.10;6.53;;;;;;;;;;5157098;27;20129;-81
2023/10/13 10:45:05;;;;;;;16.58;7.22;;;;;;;;;;5157354;27;20471;-81
2023/10/13 10:47:32;;;;;;;13.88;7.47;;;;;;;;;;5141184;27;20050;-81
2023/10/13 10:50:00;;;;;;;15.32;6.75;;;;;;;;;;5158110;27;20050;-81
2023/10/13 10:52:27;;;;;;;13.98;6.68;;;;;;;;;;5139931;27;20395;-80
2023/10/13 10:55:00;;;;;;;13.90;6.55;;;;;;;;;;5138560;27;20054;-82
2023/10/13 10:57:29;;;;;;;12.18;6.28;;;;;;;;;;5156686;27;20092;-81
2023/10/13 11:00:11;;;;;;;11.60;6.35;;;;;;;;;;5156965;27;20098;-81
2023/10/13 11:02:37;;;;;;;12.32;6.60;;;;;;;;;;5156824;27;20060;-81
2023/10/13 11:05:06;;;;;;;14.15;6.82;;;;;;;;;;5158090;27;20050;-81
2023/10/13 11:07:34;;;;;;;17.98;7.05;;;;;;;;;;5157213;27;20157;-81
2023/10/13 11:10:17;;;;;;;18.55;6.25;;;;;;;;;;5156751;27;20050;-80
2023/10/13 11:12:53;;;;;;;14.00;7.18;;;;;;;;;;5157580;27;20062;-82
2023/10/13 11:15:23;;;;;;;13.65;6.72;;;;;;;;;;5156490;27;20050;-81
2023/10/13 11:17:58;;;;;;;15.82;6.85;;;;;;;;;;5156646;27;20432;-81
2023/10/13 11:20:33;;;;;;;13.50;6.55;;;;;;;;;;5140589;27;20043;-81
2023/10/13 11:23:00;;;;;;;16.75;6.68;;;;;;;;;;5156402;27;20074;-81
2023/10/13 11:25:29;;;;;;;14.95;6.93;;;;;;;;;;5139198;27;20043;-81
2023/10/13 11:27:56;;;;;;;17.83;6.78;;;;;;;;;;5155869;27;20038;-81
2023/10/13 11:30:29;;;;;;;11.90;6.32;;;;;;;;;;5156343;27;20072;-81
2023/10/13 11:33:00;;;;;;;14.02;6.85;;;;;;;;;;5139882;27;20044;-81
2023/10/13 11:35:29;;;;;;;18.15;7.13;;;;;;;;;;5139026;27;20402;-81
2023/10/13 11:38:13;;;;;;;11.60;6.43;;;;;;;;;;5156199;27;20112;-82
2023/10/13 11:40:59;;;;;;;14.35;6.28;;;;;;;;;;5156668;27;20502;-81
2023/10/13 11:43:26;;;;;;;20.67;6.32;;;;;;;;;;5141462;27;20058;-81
2023/10/13 11:45:55;;;;;;;16.80;7.10;;;;;;;;;;5155855;27;20042;-81
2023/10/13 11:48:36;;;;;;;16.88;6.68;;;;;;;;;;5138946;27;20109;-80
2023/10/13 11:51:08;;;;;;;14.10;6.70;;;;;;;;;;5155988;27;20056;-81
2023/10/13 11:53:38;;;;;;;13.85;6.47;;;;;;;;;;5138737;27;20047;-81
2023/10/13 11:56:09;;;;;;;15.30;6.50;;;;;;;;;;5155410;27;20053;-82
2023/10/13 11:58:36;;;;;;;19.73;7.45;;;;;;;;;;5156131;27;20486;-83
2023/10/13 12:01:20;;;;;;;16.98;7.00;;;;;;;;;;5155857;27;20432;-81
2023/10/13 12:11:46;;;;;;;;;;;;;;;;;;5156322;27;20054;-80
2023/10/13 12:14:27;;;;;;;14.10;6.05;;;;;;;;;;5155526;27;19918;-82
2023/10/13 12:16:55;;;;;;;12.90;7.10;;;;;;;;;;5138224;27;20055;-81
2023/10/13 12:19:24;;;;;;;18.08;6.90;;;;;;;;;;5155066;27;20059;-81
2023/10/13 12:21:54;;;;;;;15.93;6.55;;;;;;;;;;5138339;27;20050;-82
2023/10/13 12:27:02;;;;;;;13.32;6.50;;;;;;;;;;5155008;27;20042;-81
2023/10/13 12:29:29;;;;;;;15.38;6.95;;;;;;;;;;5155189;27;20046;-81
2023/10/13 12:32:07;;;;;;;13.10;6.70;;;;;;;;;;5155224;27;20059;-81
2023/10/13 12:37:38;;;;;;;12.48;6.18;;;;;;;;;;5155237;27;20133;-81
2023/10/13 12:51:21;;;;;;;12.57;6.90;;;;;;;;;;5154640;27;20046;-81
2023/10/13 12:53:51;;;;;;;13.45;6.68;;;;;;;;;;5137571;27;20073;-81
2023/10/13 12:56:18;;;;;;;15.05;6.95;;;;;;;;;;5153809;27;20501;-81
2023/10/13 12:58:51;;;;;;;15.52;7.05;;;;;;;;;;5154350;27;20490;-81
2023/10/13 13:01:21;;;;;;;20.65;7.68;;;;;;;;;;5154592;27;20050;-81
2023/10/13 13:03:48;;;;;;;12.55;7.13;;;;;;;;;;5154407;27;20043;-80
2023/10/13 13:06:29;;;;;;;15.48;7.25;;;;;;;;;;5137653;27;20404;-81
2023/10/13 13:08:59;;;;;;;17.05;6.78;;;;;;;;;;5154772;27;20182;-81
2023/10/13 13:11:29;;;;;;;17.70;7.18;;;;;;;;;;5155458;27;20051;-81
2023/10/13 13:13:55;;;;;;;18.25;7.05;;;;;;;;;;5154183;27;20062;-81
2023/10/13 13:16:25;;;;;;;18.17;7.22;;;;;;;;;;5155523;27;20043;-81
2023/10/13 13:18:51;;;;;;;14.77;6.00;;;;;;;;;;5154007;27;20047;-81
2023/10/13 13:21:22;;;;;;;14.30;6.03;;;;;;;;;;5154396;27;20047;-81
2023/10/13 13:23:55;;;;;;;17.27;6.90;;;;;;;;;;5120928;27;20125;-81
2023/10/13 13:26:21;;;;;;;15.30;6.65;;;;;;;;;;5155264;27;20054;-81
2023/10/13 13:28:50;;;;;;;16.33;6.88;;;;;;;;;;5154089;27;20050;-81
2023/10/13 13:31:16;;;;;;;15.75;7.15;;;;;;;;;;5154634;27;20399;-81
2023/10/13 13:33:45;;;;;;;14.38;6.50;;;;;;;;;;5137061;27;20051;-81
2023/10/13 13:36:13;;;;;;;16.88;6.53;;;;;;;;;;5155282;27;20054;-81
2023/10/13 13:38:40;;;;;;;12.02;6.57;;;;;;;;;;5136993;27;20473;-80
2023/10/13 13:41:15;;;;;;;16.95;6.32;;;;;;;;;;5136723;27;20071;-81
2023/10/13 13:43:50;;;;;;;15.93;6.90;;;;;;;;;;5153802;27;20145;-81
2023/10/13 13:46:32;;;;;;;17.00;7.20;;;;;;;;;;5121770;27;20053;-80
2023/10/13 13:49:00;;;;;;;14.90;7.45;;;;;;;;;;5137110;27;20502;-81
2023/10/13 13:51:32;;;;;;;15.27;7.25;;;;;;;;;;5154201;27;20509;-81
2023/10/13 13:53:58;;;;;;;18.75;6.93;;;;;;;;;;5155133;27;20394;-80
2023/10/13 13:56:28;;;;;;;14.18;7.13;;;;;;;;;;5136459;27;20046;-81
2023/10/13 13:58:55;;;;;;;14.93;7.28;;;;;;;;;;5154112;27;20086;-79
2023/10/13 14:01:21;;;;;;;13.48;5.88;;;;;;;;;;5153817;27;20103;-80
2023/10/13 14:03:50;;;;;;;17.70;7.55;;;;;;;;;;5153778;27;20078;-81
2023/10/13 14:06:29;;;;;;;22.70;8.07;;;;;;;;;;5155263;27;20047;-80
2023/10/13 14:08:56;;;;;;;15.20;7.47;;;;;;;;;;5136778;27;20046;-80
2023/10/13 14:12:29;;;;;;;17.67;7.97;;;;;;;;;;5153976;27;20039;-81
2023/10/13 14:16:51;;;;;;;16.00;7.35;;;;;;;;;;5153849;27;20391;-81
2023/10/13 14:19:26;;;;;;;14.95;7.68;;;;;;;;;;5154816;27;20038;-81
2023/10/13 14:21:56;;;;;;;19.13;8.10;;;;;;;;;;5153725;27;20038;-82
2023/10/13 14:24:32;;;;;;;17.25;8.77;;;;;;;;;;5153827;27;20129;-81
2023/10/13 14:27:07;;;;;;;15.07;7.90;;;;;;;;;;5136353;27;20126;-81
2023/10/13 14:29:33;;;;;;;;;;;;;;;;;;5156595;27;20050;-81
2023/10/13 14:31:59;;;;;;;12.05;7.90;;;;;;;;;;5140409;27;19919;-82
2023/10/13 14:34:26;;;;;;;16.70;8.32;;;;;;;;;;5157453;27;20047;-81
2023/10/13 14:36:55;;;;;;;13.20;8.13;;;;;;;;;;5157641;27;20043;-83
2023/10/13 14:39:21;;;;;;;11.70;7.75;;;;;;;;;;5158390;27;20046;-82
2023/10/13 14:41:47;;;;;;;16.13;8.48;;;;;;;;;;5139968;27;20130;-82
2023/10/13 14:44:14;;;;;;;18.42;9.25;;;;;;;;;;5154306;27;20059;-82
2023/10/13 14:46:40;;;;;;;17.45;8.25;;;;;;;;;;5140462;27;20127;-82
2023/10/13 14:49:06;;;;;;;19.42;9.10;;;;;;;;;;5139884;27;20043;-82
2023/10/13 14:51:33;;;;;;;19.38;8.52;;;;;;;;;;5157390;27;20390;-83
2023/10/13 14:53:59;;;;;;;17.48;9.40;;;;;;;;;;5157906;27;20137;-82
2023/10/13 14:56:26;;;;;;;17.67;9.38;;;;;;;;;;5156359;27;20039;-83
2023/10/13 14:58:53;;;;;;;17.83;9.35;;;;;;;;;;5157988;27;20042;-82
2023/10/13 15:01:20;;;;;;;14.63;8.88;;;;;;;;;;5156768;27;20043;-80
2023/10/13 15:03:48;;;;;;;16.83;8.50;;;;;;;;;;5156905;27;20050;-80
2023/10/13 15:06:18;;;;;;;20.48;10.38;;;;;;;;;;5157837;27;20526;-80
2023/10/13 15:08:48;;;;;;;16.10;9.55;;;;;;;;;;5157874;27;20047;-79
2023/10/13 15:11:14;;;;;;;19.45;10.40;;;;;;;;;;5156780;27;20039;-80
2023/10/13 15:13:43;;;;;;;20.95;9.30;;;;;;;;;;5156198;27;20386;-80
2023/10/13 15:16:14;;;;;;;18.08;9.63;;;;;;;;;;5157628;27;20046;-81
2023/10/13 15:18:40;;;;;;;18.52;10.32;;;;;;;;;;5156646;27;20112;-80
2023/10/13 15:21:08;;;;;;;19.20;8.90;;;;;;;;;;5139371;27;20043;-79
2023/10/13 15:23:42;;;;;;;15.70;9.55;;;;;;;;;;5157468;27;20043;-81
2023/10/13 15:26:14;;;;;;;17.42;8.45;;;;;;;;;;5157610;27;20050;-79
2023/10/13 15:28:49;;;;;;;17.52;9.90;;;;;;;;;;5157560;27;20474;-80
2023/10/13 15:31:41;;;;;;;18.27;9.57;;;;;;;;;;5157478;27;20039;-81
2023/10/13 15:34:17;;;;;;;20.73;9.52;;;;;;;;;;5155253;27;20057;-81
2023/10/13 15:36:44;;;;;;;19.70;9.93;;;;;;;;;;5156673;27;20054;-82
2023/10/13 15:39:16;;;;;;;20.10;9.65;;;;;;;;;;5156223;27;20046;-82
2023/10/13 15:41:42;;;;;;;15.13;9.30;;;;;;;;;;5155133;27;20042;-82
2023/10/13 15:44:13;;;;;;;21.17;10.35;;;;;;;;;;5138536;27;20054;-81
2023/10/13 15:46:39;;;;;;;17.35;9.30;;;;;;;;;;5157047;27;20090;-81
2023/10/13 15:49:05;;;;;;;18.40;9.57;;;;;;;;;;5156066;27;20042;-81
2023/10/13 15:51:38;;;;;;;17.20;9.32;;;;;;;;;;5155941;27;20174;-81
2023/10/13 15:54:11;;;;;;;17.92;9.15;;;;;;;;;;5139307;27;20054;-81
2023/10/13 15:56:39;;;;;;;16.85;9.00;;;;;;;;;;5155150;27;20463;-82
2023/10/13 15:59:07;;;;;;;18.75;9.32;;;;;;;;;;5138490;27;20047;-82
2023/10/13 16:01:33;;;;;;;16.30;8.40;;;;;;;;;;5139610;27;20047;-81
2023/10/13 16:03:59;;;;;;;13.82;8.45;;;;;;;;;;5138161;27;20081;-81
2023/10/13 16:06:26;;;;;;;16.40;8.95;;;;;;;;;;5138425;27;20466;-81
2023/10/13 16:08:53;;;;;;;17.02;9.43;;;;;;;;;;5155632;27;20045;-81
2023/10/13 16:11:19;;;;;;;16.38;9.38;;;;;;;;;;5138305;27;20454;-81
2023/10/13 16:13:46;;;;;;;16.13;8.85;;;;;;;;;;5155523;27;20051;-82
2023/10/13 16:16:25;;;;;;;18.52;10.02;;;;;;;;;;5156477;27;20394;-82
2023/10/13 16:18:51;;;;;;;16.23;8.88;;;;;;;;;;5138512;27;20047;-82
2023/10/13 16:21:18;;;;;;;17.00;8.88;;;;;;;;;;5137778;27;20046;-82
2023/10/13 16:23:47;;;;;;;16.95;9.45;;;;;;;;;;5155086;27;20478;-82
2023/10/13 16:26:14;;;;;;;13.85;8.40;;;;;;;;;;5155327;27;20053;-81
2023/10/13 16:28:40;;;;;;;17.10;9.43;;;;;;;;;;5155227;27;20467;-81
2023/10/13 16:31:07;;;;;;;25.58;14.95;;;;;;;;;;5155214;27;20048;-82
2023/10/13 16:33:39;;;;;;;21.42;12.48;;;;;;;;;;5138304;27;20094;-82
2023/10/13 16:36:08;;;;;;;20.63;10.50;;;;;;;;;;5155372;27;20099;-82
2023/10/13 16:38:38;;;;;;;14.85;9.15;;;;;;;;;;5156057;27;20549;-82
2023/10/13 16:41:06;;;;;;;19.30;10.25;;;;;;;;;;5138173;27;20091;-82
2023/10/13 16:43:36;;;;;;;21.23;10.18;;;;;;;;;;5138080;27;20063;-82
2023/10/13 16:46:06;;;;;;;20.50;10.13;;;;;;;;;;5137637;27;20497;-82
2023/10/13 16:48:35;;;;;;;14.85;9.85;;;;;;;;;;5155201;27;20133;-82
2023/10/13 16:51:02;;;;;;;14.75;9.48;;;;;;;;;;5154689;27;20046;-81
2023/10/13 16:53:28;;;;;;;19.95;9.25;;;;;;;;;;5154856;27;20045;-81
2023/10/13 16:55:54;;;;;;;17.13;8.73;;;;;;;;;;5120197;27;20043;-82
2023/10/13 16:58:22;;;;;;;14.25;8.45;;;;;;;;;;5154053;27;20483;-81
2023/10/13 17:00:51;;;;;;;10.82;7.22;;;;;;;;;;5154449;27;20516;-82
2023/10/13 17:03:29;;;;;;;11.52;6.30;;;;;;;;;;5138096;27;20121;-83
2023/10/13 17:05:55;;;;;;;11.63;5.55;;;;;;;;;;5137642;27;20050;-82
2023/10/13 17:08:21;;;;;;;13.88;6.32;;;;;;;;;;5136965;27;20065;-83
2023/10/13 17:10:49;;;;;;;12.05;6.30;;;;;;;;;;5154357;27;20390;-82
2023/10/13 17:13:16;;;;;;;19.65;11.55;;;;;;;;;;5136862;27;20057;-82
2023/10/13 17:15:42;;;;;;;16.30;8.00;;;;;;;;;;5137238;27;20372;-83
2023/10/13 17:18:08;;;;;;;15.38;8.90;;;;;;;;;;5155444;27;20046;-83
2023/10/13 17:20:36;;;;;;;15.18;8.18;;;;;;;;;;5119677;27;20047;-82
2023/10/13 17:23:03;;;;;;;15.02;8.10;;;;;;;;;;5154066;27;20043;-84
2023/10/13 17:25:32;;;;;;;15.60;8.15;;;;;;;;;;5136971;27;20048;-81
2023/10/13 17:27:58;;;;;;;16.13;8.23;;;;;;;;;;5136743;27;20163;-82
2023/10/13 17:30:25;;;;;;;16.40;8.07;;;;;;;;;;5154186;27;20080;-83
2023/10/13 17:32:51;;;;;;;18.75;9.30;;;;;;;;;;5137010;27;20050;-82
2023/10/13 17:35:17;;;;;;;20.95;9.23;;;;;;;;;;5154192;27;20051;-81
2023/10/13 17:37:43;;;;;;;18.92;9.40;;;;;;;;;;5136757;27;20050;-82
2023/10/13 17:40:16;;;;;;;17.65;9.68;;;;;;;;;;5137091;27;20053;-82
2023/10/13 17:42:46;;;;;;;14.95;9.35;;;;;;;;;;5136172;27;20107;-82